createdAt,value
2023-03-21T00:00:50.571Z,101115.97
2023-03-21T00:03:20.063Z,101121.34
2023-03-21T00:05:52.102Z,101120.91
2023-03-21T00:08:22.433Z,101122.53
2023-03-21T00:10:59.453Z,101116.13
2023-03-21T00:13:33.135Z,101116.63
2023-03-21T00:16:18.771Z,101115.13
2023-03-21T00:18:57.385Z,101109.06
2023-03-21T00:24:18.212Z,101112.84
2023-03-21T00:26:47.951Z,101112.03
2023-03-21T00:29:19.980Z,101110.66
2023-03-21T00:31:49.318Z,101105.59
2023-03-21T00:34:26.723Z,101102.47
2023-03-21T00:37:07.362Z,101101.09
2023-03-21T00:39:36.642Z,101092.78
2023-03-21T00:42:06.522Z,101087.28
2023-03-21T00:44:40.322Z,101093.00
2023-03-21T00:47:09.821Z,101087.97
2023-03-21T00:49:39.734Z,101093.63
2023-03-21T00:52:20.169Z,101090.22
2023-03-21T00:54:51.852Z,101091.41
2023-03-21T00:57:29.373Z,101088.94
2023-03-21T01:00:10.599Z,101085.00
2023-03-21T01:02:43.394Z,101084.28
2023-03-21T01:05:34.553Z,101084.38
2023-03-21T01:08:20.622Z,101084.72
2023-03-21T01:10:54.877Z,101078.13
2023-03-21T01:13:29.995Z,101067.75
2023-03-21T01:16:05.246Z,101074.91
2023-03-21T01:18:36.570Z,101073.63
2023-03-21T01:21:10.606Z,101071.31
2023-03-21T01:23:40.852Z,101073.16
2023-03-21T01:26:11.640Z,101065.13
2023-03-21T01:28:42.604Z,101068.03
2023-03-21T01:31:16.102Z,101071.06
2023-03-21T01:33:45.894Z,101066.84
2023-03-21T01:36:22.286Z,101064.31
2023-03-21T01:38:52.842Z,101064.44
2023-03-21T01:41:46.691Z,101064.75
2023-03-21T01:44:20.456Z,101063.25
2023-03-21T01:47:12.164Z,101059.03
2023-03-21T01:49:46.332Z,101071.78
2023-03-21T01:52:33.509Z,101066.59
2023-03-21T01:55:07.146Z,101060.22
2023-03-21T01:57:51.864Z,101063.81
2023-03-21T02:00:31.777Z,101062.06
2023-03-21T02:03:16.883Z,101065.34
2023-03-21T02:05:56.432Z,101050.47
2023-03-21T02:08:38.358Z,101045.03
2023-03-21T02:11:09.977Z,101053.91
2023-03-21T02:13:39.475Z,101047.56
2023-03-21T02:16:17.256Z,101051.50
2023-03-21T02:18:57.735Z,101047.47
2023-03-21T02:21:57.092Z,101038.28
2023-03-21T02:25:01.256Z,101041.03
2023-03-21T02:27:37.611Z,101037.41
2023-03-21T02:30:50.867Z,101037.19
2023-03-21T02:33:42.491Z,101038.34
2023-03-21T02:36:30.617Z,101026.22
2023-03-21T02:39:14.277Z,101028.09
2023-03-21T02:41:50.640Z,101028.59
2023-03-21T02:44:26.547Z,101026.00
2023-03-21T02:47:05.887Z,101034.06
2023-03-21T02:49:42.983Z,101027.50
2023-03-21T02:52:28.336Z,101034.06
2023-03-21T02:55:05.918Z,101034.53
2023-03-21T02:57:42.575Z,101032.56
2023-03-21T03:00:16.964Z,101025.28
2023-03-21T03:02:48.843Z,101022.75
2023-03-21T03:05:22.222Z,101020.53
2023-03-21T03:08:14.949Z,101020.63
2023-03-21T03:10:58.516Z,101021.81
2023-03-21T03:13:40.722Z,101021.31
2023-03-21T03:16:19.937Z,101013.38
2023-03-21T03:18:55.187Z,101012.69
2023-03-21T03:21:32.508Z,101014.22
2023-03-21T03:24:08.579Z,101011.19
2023-03-21T03:26:44.476Z,101017.97
2023-03-21T03:29:19.319Z,101012.69
2023-03-21T03:31:54.274Z,101017.13
2023-03-21T03:34:26.885Z,101012.09
2023-03-21T03:37:03.205Z,101014.56
2023-03-21T03:39:38.307Z,101018.22
2023-03-21T03:42:27.696Z,101014.31
2023-03-21T03:44:58.656Z,101006.97
2023-03-21T03:47:39.943Z,101004.53
2023-03-21T03:50:21.096Z,101001.03
2023-03-21T03:52:57.149Z,101000.56
2023-03-21T03:55:34.346Z,101007.56
2023-03-21T03:58:10.622Z,101006.06
2023-03-21T04:00:49.544Z,101000.44
2023-03-21T04:03:19.064Z,100996.47
2023-03-21T04:05:48.592Z,100999.50
2023-03-21T04:08:19.268Z,100994.47
2023-03-21T04:10:48.571Z,100997.13
2023-03-21T04:13:20.474Z,100995.53
2023-03-21T04:15:49.800Z,101002.75
2023-03-21T04:18:19.128Z,101000.22
2023-03-21T04:20:49.451Z,100997.97
2023-03-21T04:23:18.993Z,100999.72
2023-03-21T04:25:56.262Z,100998.22
2023-03-21T04:28:28.450Z,101001.94
2023-03-21T04:31:04.916Z,100995.19
2023-03-21T04:33:38.446Z,100992.06
2023-03-21T04:36:09.435Z,100988.75
2023-03-21T04:38:39.198Z,100995.06
2023-03-21T04:41:09.028Z,100991.34
2023-03-21T04:43:40.911Z,100991.78
2023-03-21T04:46:10.240Z,100991.78
2023-03-21T04:48:39.735Z,100994.84
2023-03-21T04:51:09.361Z,100996.16
2023-03-21T04:53:39.498Z,100988.88
2023-03-21T04:56:09.396Z,100993.69
2023-03-21T04:58:41.586Z,100992.03
2023-03-21T05:01:14.542Z,100997.66
2023-03-21T05:03:43.915Z,100990.16
2023-03-21T05:06:13.287Z,101000.22
2023-03-21T05:08:42.566Z,100991.91
2023-03-21T05:11:11.871Z,100991.91
2023-03-21T05:13:44.196Z,100992.28
2023-03-21T05:16:13.568Z,100982.56
2023-03-21T05:18:42.952Z,100992.63
2023-03-21T05:21:13.536Z,100985.97
2023-03-21T05:23:42.817Z,100988.19
2023-03-21T05:26:12.989Z,100994.34
2023-03-21T05:28:44.856Z,100994.59
2023-03-21T05:31:16.679Z,100987.47
2023-03-21T05:33:46.087Z,100993.19
2023-03-21T05:36:17.173Z,100989.91
2023-03-21T05:38:47.535Z,100985.47
2023-03-21T05:41:19.193Z,100985.22
2023-03-21T05:43:51.208Z,100995.00
2023-03-21T05:46:21.030Z,100992.19
2023-03-21T05:48:50.276Z,101002.00
2023-03-21T05:51:19.598Z,100998.25
2023-03-21T05:53:48.944Z,101001.28
2023-03-21T05:56:19.096Z,101000.81
2023-03-21T05:58:51.230Z,101003.16
2023-03-21T06:01:20.527Z,100999.06
2023-03-21T06:03:49.923Z,100998.16
2023-03-21T06:06:19.330Z,101006.84
2023-03-21T06:08:48.861Z,100999.63
2023-03-21T06:11:27.443Z,101001.16
2023-03-21T06:13:59.629Z,101002.09
2023-03-21T06:16:28.973Z,101007.22
2023-03-21T06:18:58.354Z,101003.56
2023-03-21T06:21:27.630Z,101008.13
2023-03-21T06:23:57.084Z,101003.81
2023-03-21T06:26:26.419Z,101010.31
2023-03-21T06:28:59.029Z,101011.84
2023-03-21T06:31:28.284Z,101006.25
2023-03-21T06:33:57.534Z,101001.81
2023-03-21T06:36:26.843Z,101008.59
2023-03-21T06:38:56.654Z,101011.34
2023-03-21T06:41:26.039Z,101011.72
2023-03-21T06:43:55.470Z,101013.97
2023-03-21T06:46:27.338Z,101009.31
2023-03-21T06:48:56.555Z,101014.03
2023-03-21T06:51:25.908Z,101011.41
2023-03-21T06:53:55.485Z,101012.53
2023-03-21T06:56:24.739Z,101009.38
2023-03-21T06:58:54.002Z,101007.66
2023-03-21T07:01:23.358Z,101010.13
2023-03-21T07:03:56.747Z,101002.13
2023-03-21T07:06:26.583Z,101006.81
2023-03-21T07:08:56.862Z,101003.22
2023-03-21T07:11:27.058Z,101001.47
2023-03-21T07:13:56.819Z,101010.50
2023-03-21T07:16:26.198Z,101003.88
2023-03-21T07:18:58.462Z,101006.56
2023-03-21T07:21:27.716Z,101013.81
2023-03-21T07:23:57.068Z,101012.78
2023-03-21T07:26:26.370Z,101018.44
2023-03-21T07:28:55.709Z,101027.31
2023-03-21T07:31:26.958Z,101020.81
2023-03-21T07:33:58.852Z,101030.34
2023-03-21T07:36:28.235Z,101031.84
2023-03-21T07:38:57.664Z,101026.19
2023-03-21T07:41:26.974Z,101019.84
2023-03-21T07:43:56.293Z,101032.31
2023-03-21T07:46:25.608Z,101028.50
2023-03-21T07:48:54.878Z,101028.38
2023-03-21T07:51:26.724Z,101030.34
2023-03-21T07:53:56.259Z,101036.91
2023-03-21T07:56:25.798Z,101039.88
2023-03-21T07:58:55.045Z,101033.22
2023-03-21T08:01:24.524Z,101035.22
2023-03-21T08:03:54.001Z,101029.44
2023-03-21T08:06:32.330Z,101029.66
2023-03-21T08:09:03.074Z,101025.81
2023-03-21T08:11:33.267Z,101021.47
2023-03-21T08:14:03.197Z,101014.63
2023-03-21T08:16:32.570Z,101013.66
2023-03-21T08:19:01.860Z,101011.19
2023-03-21T08:21:33.702Z,101007.81
2023-03-21T08:24:02.905Z,101019.25
2023-03-21T08:26:33.290Z,101011.19
2023-03-21T08:29:26.262Z,101015.41
2023-03-21T08:31:55.816Z,101016.84
2023-03-21T08:34:26.738Z,101011.34
2023-03-21T08:36:58.567Z,101018.97
2023-03-21T08:39:28.530Z,101014.75
2023-03-21T08:41:57.808Z,101015.09
2023-03-21T08:44:27.049Z,101013.34
2023-03-21T08:46:56.285Z,101008.09
2023-03-21T08:49:26.152Z,101012.41
2023-03-21T08:52:01.010Z,101023.84
2023-03-21T08:54:30.409Z,101031.56
2023-03-21T08:56:59.653Z,101029.13
2023-03-21T08:59:28.926Z,101027.81
2023-03-21T09:01:58.322Z,101027.69
2023-03-21T09:04:30.645Z,101027.25
2023-03-21T09:07:05.142Z,101030.53
2023-03-21T09:09:34.707Z,101029.97
2023-03-21T09:12:04.939Z,101019.31
2023-03-21T09:14:34.760Z,101022.75
2023-03-21T09:17:04.353Z,101019.78
2023-03-21T09:19:34.986Z,101015.25
2023-03-21T09:22:14.363Z,101014.44
2023-03-21T09:24:44.997Z,101015.34
2023-03-21T09:27:16.355Z,101016.19
2023-03-21T09:29:46.071Z,101016.09
2023-03-21T09:32:15.367Z,101010.59
2023-03-21T09:34:44.644Z,101011.66
2023-03-21T09:37:16.553Z,101003.59
2023-03-21T09:39:46.146Z,100998.09
2023-03-21T09:42:30.825Z,101001.13
2023-03-21T09:45:09.884Z,101006.75
2023-03-21T09:47:45.488Z,100997.28
2023-03-21T09:50:20.114Z,101001.25
2023-03-21T09:52:58.208Z,100999.63
2023-03-21T09:55:31.347Z,100994.59
2023-03-21T09:58:08.018Z,100998.56
2023-03-21T10:00:43.388Z,100993.56
2023-03-21T10:03:24.428Z,100991.91
2023-03-21T10:05:57.544Z,100985.03
2023-03-21T10:08:34.396Z,100982.00
2023-03-21T10:11:08.252Z,100991.25
2023-03-21T10:13:43.285Z,100986.44
2023-03-21T10:16:17.393Z,100992.97
2023-03-21T10:18:47.314Z,100989.34
2023-03-21T10:21:51.458Z,100991.34
2023-03-21T10:24:20.681Z,100985.75
2023-03-21T10:26:52.422Z,100987.38
2023-03-21T10:29:28.424Z,100985.97
2023-03-21T10:31:58.089Z,100991.09
2023-03-21T10:34:34.679Z,100979.78
2023-03-21T10:37:06.357Z,100982.00
2023-03-21T10:39:40.468Z,100979.66
2023-03-21T10:42:20.027Z,100978.25
2023-03-21T10:44:51.361Z,100980.00
2023-03-21T10:47:24.224Z,100970.53
2023-03-21T10:50:07.323Z,100972.41
2023-03-21T10:52:38.628Z,100961.56
2023-03-21T10:55:21.477Z,100954.06
2023-03-21T10:57:51.828Z,100958.38
2023-03-21T11:00:24.706Z,100961.78
2023-03-21T11:02:56.547Z,100955.47
2023-03-21T11:05:29.463Z,100951.84
2023-03-21T11:08:02.975Z,100951.94
2023-03-21T11:10:38.297Z,100944.72
2023-03-21T11:13:10.518Z,100945.78
2023-03-21T11:15:45.639Z,100949.75
2023-03-21T11:18:21.605Z,100941.63
2023-03-21T11:20:57.153Z,100933.56
2023-03-21T11:23:30.443Z,100940.38
2023-03-21T11:26:04.103Z,100936.84
2023-03-21T11:28:39.471Z,100935.06
2023-03-21T11:31:11.474Z,100935.78
2023-03-21T11:33:44.810Z,100933.69
2023-03-21T11:36:34.325Z,100933.69
2023-03-21T11:39:28.710Z,100934.00
2023-03-21T11:42:00.688Z,100936.59
2023-03-21T11:44:33.532Z,100934.59
2023-03-21T11:47:02.880Z,100928.69
2023-03-21T11:49:33.334Z,100920.75
2023-03-21T11:52:21.712Z,100931.38
2023-03-21T11:55:08.034Z,100930.19
2023-03-21T11:57:51.895Z,100925.16
2023-03-21T12:00:26.871Z,100922.22
2023-03-21T12:03:45.343Z,100914.84
2023-03-21T12:06:25.214Z,100914.19
2023-03-21T12:09:07.430Z,100915.34
2023-03-21T12:11:46.238Z,100904.91
2023-03-21T12:14:28.183Z,100896.53
2023-03-21T12:17:11.646Z,100893.19
2023-03-21T12:20:11.182Z,100891.91
2023-03-21T12:22:52.742Z,100886.44
2023-03-21T12:25:29.411Z,100883.28
2023-03-21T12:28:10.517Z,100883.50
2023-03-21T12:30:56.312Z,100874.28
2023-03-21T12:33:39.368Z,100870.19
2023-03-21T12:36:23.315Z,100865.38
2023-03-21T12:39:06.881Z,100865.88
2023-03-21T12:41:42.103Z,100853.44
2023-03-21T12:44:15.321Z,100860.91
2023-03-21T12:46:50.460Z,100854.38
2023-03-21T12:49:26.026Z,100854.66
2023-03-21T12:52:03.173Z,100846.50
2023-03-21T12:54:38.052Z,100850.34
2023-03-21T12:57:12.437Z,100847.09
2023-03-21T12:59:48.227Z,100846.41
2023-03-21T13:02:27.145Z,100851.13
2023-03-21T13:05:02.983Z,100832.50
2023-03-21T13:07:36.193Z,100837.22
2023-03-21T13:10:14.449Z,100831.59
2023-03-21T13:12:50.385Z,100825.91
2023-03-21T13:15:40.437Z,100828.78
2023-03-21T13:18:26.002Z,100819.22
2023-03-21T13:20:59.345Z,100817.09
2023-03-21T13:23:37.510Z,100826.06
2023-03-21T13:26:12.484Z,100815.06
2023-03-21T13:28:44.464Z,100819.38
2023-03-21T13:31:24.895Z,100823.63
2023-03-21T13:34:03.746Z,100815.38
2023-03-21T13:36:39.684Z,100813.38
2023-03-21T13:39:09.000Z,100809.03
2023-03-21T13:41:41.024Z,100812.59
2023-03-21T13:44:22.616Z,100810.00
2023-03-21T13:46:57.542Z,100808.69
2023-03-21T13:49:35.388Z,100808.69
2023-03-21T13:52:06.177Z,100804.72
2023-03-21T13:54:57.747Z,100805.53
2023-03-21T13:57:41.423Z,100803.25
2023-03-21T14:00:23.609Z,100799.19
2023-03-21T14:02:59.512Z,100805.53
2023-03-21T14:05:31.909Z,100792.97
2023-03-21T14:08:15.301Z,100796.63
2023-03-21T14:10:51.195Z,100795.75
2023-03-21T14:13:24.510Z,100799.81
2023-03-21T14:15:57.190Z,100789.72
2023-03-21T14:18:52.300Z,100787.59
2023-03-21T14:21:25.929Z,100792.56
2023-03-21T14:24:03.331Z,100783.44
2023-03-21T14:26:35.461Z,100790.03
2023-03-21T14:29:09.660Z,100790.69
2023-03-21T14:31:44.977Z,100774.78
2023-03-21T14:34:15.076Z,100778.78
2023-03-21T14:36:55.429Z,100784.72
2023-03-21T14:39:31.160Z,100778.31
2023-03-21T14:42:06.492Z,100769.88
2023-03-21T14:44:52.850Z,100769.09
2023-03-21T14:47:24.635Z,100764.50
2023-03-21T14:49:54.588Z,100762.19
2023-03-21T14:52:30.523Z,100762.66
2023-03-21T14:55:00.784Z,100761.41
2023-03-21T14:57:33.450Z,100761.81
2023-03-21T15:00:12.463Z,100754.56
2023-03-21T15:02:44.718Z,100758.00
2023-03-21T15:05:21.278Z,100760.44
2023-03-21T15:07:59.065Z,100759.41
2023-03-21T15:10:30.854Z,100761.75
2023-03-21T15:13:02.661Z,100750.66
2023-03-21T15:15:34.430Z,100751.25
2023-03-21T15:18:07.033Z,100741.78
2023-03-21T15:20:40.341Z,100746.44
2023-03-21T15:23:18.646Z,100743.47
2023-03-21T15:25:48.413Z,100733.88
2023-03-21T15:28:17.853Z,100729.81
2023-03-21T15:30:51.751Z,100734.44
2023-03-21T15:33:22.260Z,100728.81
2023-03-21T15:35:55.760Z,100719.84
2023-03-21T15:38:33.620Z,100725.00
2023-03-21T15:41:19.788Z,100713.47
2023-03-21T15:43:50.580Z,100716.69
2023-03-21T15:46:34.327Z,100716.47
2023-03-21T15:49:10.917Z,100708.81
2023-03-21T15:51:40.590Z,100724.06
2023-03-21T15:54:17.305Z,100719.00
2023-03-21T15:56:51.693Z,100713.91
2023-03-21T15:59:21.351Z,100704.25
2023-03-21T16:01:53.886Z,100711.44
2023-03-21T16:04:24.384Z,100707.69
2023-03-21T16:06:58.917Z,100707.09
2023-03-21T16:09:41.147Z,100700.34
2023-03-21T16:12:15.391Z,100700.19
2023-03-21T16:14:47.334Z,100699.53
2023-03-21T16:17:28.903Z,100701.09
2023-03-21T16:19:58.209Z,100705.19
2023-03-21T16:22:28.344Z,100697.03
2023-03-21T16:25:00.706Z,100691.31
2023-03-21T16:27:29.959Z,100695.00
2023-03-21T16:29:59.221Z,100691.16
2023-03-21T16:32:28.748Z,100689.78
2023-03-21T16:34:57.981Z,100689.72
2023-03-21T16:37:27.253Z,100685.19
2023-03-21T16:39:56.715Z,100686.34
2023-03-21T16:42:28.654Z,100689.28
2023-03-21T16:44:57.902Z,100685.78
2023-03-21T16:47:27.129Z,100679.59
2023-03-21T16:49:56.583Z,100679.66
2023-03-21T16:52:26.633Z,100684.56
2023-03-21T16:54:55.935Z,100683.25
2023-03-21T16:57:30.292Z,100677.72
2023-03-21T16:59:59.670Z,100684.16
2023-03-21T17:02:29.076Z,100681.78
2023-03-21T17:04:58.283Z,100682.44
2023-03-21T17:07:27.561Z,100670.72
2023-03-21T17:09:56.806Z,100679.66
2023-03-21T17:12:28.730Z,100675.13
2023-03-21T17:14:58.000Z,100676.50
2023-03-21T17:17:27.194Z,100671.69
2023-03-21T17:19:56.548Z,100668.34
2023-03-21T17:22:25.880Z,100669.16
2023-03-21T17:25:10.274Z,100661.50
2023-03-21T17:27:43.660Z,100660.09
2023-03-21T17:30:22.015Z,100666.13
2023-03-21T17:32:51.935Z,100672.44
2023-03-21T17:35:32.177Z,100665.72
2023-03-21T17:43:50.970Z,100670.53
2023-03-21T17:46:22.959Z,100678.00
2023-03-21T17:48:52.641Z,100672.53
2023-03-21T17:51:26.099Z,100663.81
2023-03-21T17:53:55.662Z,100678.66
2023-03-21T17:56:29.979Z,100675.47
2023-03-21T17:59:03.648Z,100681.50
2023-03-21T18:01:33.333Z,100682.97
2023-03-21T18:04:05.006Z,100684.19
2023-03-21T18:06:37.448Z,100685.50
2023-03-21T18:09:11.750Z,100691.69
2023-03-21T18:11:42.295Z,100684.81
2023-03-21T18:14:18.190Z,100692.00
2023-03-21T18:16:50.424Z,100689.38
2023-03-21T18:19:19.791Z,100689.00
2023-03-21T18:21:49.033Z,100696.78
2023-03-21T18:24:18.251Z,100693.94
2023-03-21T18:26:47.813Z,100691.25
2023-03-21T18:30:18.068Z,100687.50
2023-03-21T18:32:09.990Z,100679.72
2023-03-21T18:34:41.734Z,100673.06
2023-03-21T18:37:13.432Z,100678.00
2023-03-21T18:39:44.409Z,100677.81
2023-03-21T18:42:18.273Z,100669.19
2023-03-21T18:44:52.318Z,100677.75
2023-03-21T18:47:22.460Z,100685.88
2023-03-21T18:52:42.134Z,100679.63
2023-03-21T18:55:14.794Z,100678.47
2023-03-21T18:57:45.656Z,100681.72
2023-03-21T19:00:21.823Z,100685.31
2023-03-21T19:03:04.003Z,100686.53
2023-03-21T19:05:41.036Z,100675.47
2023-03-21T19:08:10.853Z,100672.88
2023-03-21T19:10:40.472Z,100677.03
2023-03-21T19:13:10.453Z,100669.50
2023-03-21T19:15:42.362Z,100675.59
2023-03-21T19:21:03.560Z,100677.56
2023-03-21T19:23:50.145Z,100669.41
2023-03-21T19:26:22.128Z,100667.56
2023-03-21T19:28:51.435Z,100670.16
2023-03-21T19:31:24.228Z,100665.09
2023-03-21T19:33:53.861Z,100672.41
2023-03-21T19:36:26.063Z,100667.97
2023-03-21T19:38:55.773Z,100672.94
2023-03-21T19:41:25.439Z,100674.56
2023-03-21T19:43:56.517Z,100675.81
2023-03-21T19:46:29.177Z,100668.38
2023-03-21T19:48:59.313Z,100663.91
2023-03-21T19:51:30.589Z,100659.66
2023-03-21T19:54:00.396Z,100659.06
2023-03-21T19:56:31.613Z,100656.47
2023-03-21T19:59:03.633Z,100631.88
2023-03-21T20:01:37.126Z,100644.44
2023-03-21T20:06:48.074Z,100649.63
2023-03-21T20:09:50.584Z,100654.91
2023-03-21T20:12:09.130Z,100651.00
2023-03-21T20:14:38.489Z,100642.47
2023-03-21T20:17:11.281Z,100641.75
2023-03-21T20:19:40.593Z,100643.59
2023-03-21T20:22:21.791Z,100643.13
2023-03-21T20:24:56.415Z,100644.59
2023-03-21T20:27:29.899Z,100639.28
2023-03-21T20:30:09.071Z,100643.22
2023-03-21T20:32:43.872Z,100646.94
2023-03-21T20:35:21.303Z,100648.00
2023-03-21T20:38:00.738Z,100645.25
2023-03-21T20:40:30.486Z,100634.88
2023-03-21T20:43:28.395Z,100631.88
2023-03-21T20:45:50.915Z,100632.06
2023-03-21T20:48:22.893Z,100632.97
2023-03-21T20:50:57.859Z,100628.72
2023-03-21T20:53:30.542Z,100620.66
2023-03-21T20:56:04.656Z,100628.31
2023-03-21T20:58:59.418Z,100631.59
2023-03-21T21:01:26.423Z,100632.31
2023-03-21T21:04:00.666Z,100632.25
2023-03-21T21:06:30.281Z,100621.63
2023-03-21T21:09:00.178Z,100612.38
2023-03-21T21:14:21.269Z,100616.53
2023-03-21T21:16:51.579Z,100611.69
2023-03-21T21:19:23.560Z,100607.59
2023-03-21T21:21:52.957Z,100604.13
2023-03-21T21:24:22.297Z,100606.66
2023-03-21T21:26:51.620Z,100599.66
2023-03-21T21:29:23.114Z,100601.94
2023-03-21T21:31:53.122Z,100598.44
2023-03-21T21:34:24.925Z,100594.38
2023-03-21T21:36:55.284Z,100587.47
2023-03-21T21:39:26.623Z,100580.53
2023-03-21T21:41:56.199Z,100580.13
2023-03-21T21:44:25.621Z,100585.66
2023-03-21T21:46:55.018Z,100572.28
2023-03-21T21:49:28.291Z,100573.31
2023-03-21T21:51:59.849Z,100570.88
2023-03-21T21:54:30.188Z,100570.50
2023-03-21T21:56:59.598Z,100565.13
2023-03-21T21:59:29.267Z,100572.94
2023-03-21T22:01:58.626Z,100571.47
2023-03-21T22:04:30.521Z,100563.75
2023-03-21T22:07:00.293Z,100560.88
2023-03-21T22:09:29.594Z,100569.59
2023-03-21T22:11:58.953Z,100577.78
2023-03-21T22:14:28.259Z,100569.25
2023-03-21T22:16:59.583Z,100565.03
2023-03-21T22:19:31.834Z,100566.03
2023-03-21T22:22:01.183Z,100565.88
2023-03-21T22:24:30.562Z,100565.78
2023-03-21T22:27:00.389Z,100566.91
2023-03-21T22:29:31.151Z,100559.72
2023-03-21T22:32:00.563Z,100556.97
2023-03-21T22:34:32.807Z,100561.78
2023-03-21T22:37:02.581Z,100552.59
2023-03-21T22:39:31.925Z,100551.03
2023-03-21T22:42:04.304Z,100547.22
2023-03-21T22:44:37.150Z,100544.84
2023-03-21T22:47:08.929Z,100540.53
2023-03-21T22:49:42.527Z,100538.44
2023-03-21T22:52:13.937Z,100547.97
2023-03-21T22:54:43.351Z,100540.84
2023-03-21T22:57:15.091Z,100539.91
2023-03-21T22:59:45.400Z,100543.97
2023-03-21T23:02:15.510Z,100540.84
2023-03-21T23:04:48.161Z,100539.81
2023-03-21T23:07:18.280Z,100539.06
2023-03-21T23:12:23.280Z,100535.75
2023-03-21T23:20:12.831Z,100533.69
2023-03-21T23:22:47.371Z,100541.59
2023-03-21T23:25:17.378Z,100538.28
2023-03-21T23:30:22.368Z,100537.91
2023-03-21T23:33:03.500Z,100534.97
2023-03-21T23:35:50.941Z,100534.97
2023-03-21T23:38:20.709Z,100533.84
2023-03-21T23:41:04.683Z,100532.88
2023-03-21T23:48:49.105Z,100522.38
2023-03-21T23:51:21.993Z,100516.63
2023-03-21T23:53:53.639Z,100530.38
2023-03-21T23:56:26.098Z,100513.66
2023-03-21T23:58:55.449Z,100520.00
